Time;durP1;ratioP1;P1;durP2;ratioP2;P2;SDS_P1;SDS_P2;PMS_P1;PMS_P2;Temp;Humidity;BMP_temperature;BMP_pressure;BME280_temperature;BME280_humidity;BME280_pressure;Samples;Min_cycle;Max_cycle;Signal;HPM_P1;HPM_P2
2022/01/21 00:00:22;;;;;;;7.38;2.80;;;;;;;1.52;71.43;100036.50;4126999;28;20825;-51
2022/01/21 00:02:25;;;;;;;3.97;2.83;;;;;;;1.53;70.57;100033.66;4127017;28;20292;-52
2022/01/21 00:04:27;;;;;;;4.28;3.80;;;;;;;1.50;71.18;100033.97;4127479;28;20313;-53
2022/01/21 00:06:29;;;;;;;4.75;2.90;;;;;;;1.49;70.95;100029.56;4127087;28;20364;-51
2022/01/21 00:08:30;;;;;;;7.40;3.08;;;;;;;1.45;71.17;100025.50;4106990;28;20212;-51
2022/01/21 00:10:32;;;;;;;9.30;3.08;;;;;;;1.46;71.40;100027.19;4111827;28;20297;-51
2022/01/21 00:12:35;;;;;;;3.90;2.60;;;;;;;1.45;71.10;100030.91;4113875;28;20226;-51
2022/01/21 00:14:37;;;;;;;7.75;2.60;;;;;;;1.51;71.53;100030.28;4128991;28;20226;-52
2022/01/21 00:16:39;;;;;;;3.60;2.95;;;;;;;1.46;71.60;100029.88;4113452;28;20269;-50
2022/01/21 00:18:54;;;;;;;4.95;3.53;;;;;;;1.51;71.48;100032.97;4110820;28;20218;-51
2022/01/21 00:30:20;;;;;;;3.88;2.55;;;;;;;1.41;70.92;100021.41;4127214;28;20210;-51
2022/01/21 00:32:22;;;;;;;3.85;3.10;;;;;;;1.47;70.74;100020.78;4111246;28;20957;-52
2022/01/21 00:34:24;;;;;;;6.22;3.30;;;;;;;1.47;71.28;100018.09;4111598;28;21004;-50
2022/01/21 00:36:26;;;;;;;11.48;3.35;;;;;;;1.44;71.08;100023.81;4112411;28;20289;-51
2022/01/21 00:38:30;;;;;;;8.38;2.55;;;;;;;1.56;71.12;100027.97;4111555;28;20214;-51
2022/01/21 00:40:33;;;;;;;7.00;3.00;;;;;;;1.48;70.69;100024.34;4125131;28;20650;-52
2022/01/21 00:44:39;;;;;;;6.78;4.45;;;;;;;1.45;71.37;100027.34;4126435;28;20221;-51
2022/01/21 00:46:41;;;;;;;10.27;6.22;;;;;;;1.44;71.37;100023.81;4111290;28;20319;-52
2022/01/21 00:48:43;;;;;;;9.57;4.60;;;;;;;1.47;71.33;100028.88;4107568;28;20226;-51
2022/01/21 00:50:44;;;;;;;14.55;5.63;;;;;;;1.49;71.26;100026.88;4109407;28;20274;-52
2022/01/21 00:52:46;;;;;;;8.25;4.40;;;;;;;1.50;71.25;100027.72;4110373;28;20198;-52
2022/01/21 00:54:48;;;;;;;7.20;4.30;;;;;;;1.40;71.51;100033.19;4092511;28;20231;-49
2022/01/21 00:56:50;;;;;;;10.10;4.47;;;;;;;1.44;71.17;100031.91;4122187;28;20211;-50
2022/01/21 00:58:51;;;;;;;5.05;2.85;;;;;;;1.51;71.15;100035.66;4123962;28;20214;-51
2022/01/21 01:00:56;;;;;;;6.43;2.95;;;;;;;1.46;71.65;100032.59;4111258;28;20316;-51
2022/01/21 01:02:59;;;;;;;3.22;2.30;;;;;;;1.40;71.63;100037.78;4108991;28;20273;-50
2022/01/21 01:05:02;;;;;;;6.82;2.40;;;;;;;1.42;72.08;100036.59;4089483;28;20223;-53
2022/01/21 01:07:04;;;;;;;4.40;3.05;;;;;;;1.46;71.95;100040.69;4125188;28;20202;-52
2022/01/21 01:09:06;;;;;;;7.30;2.38;;;;;;;1.46;71.84;100037.97;4129131;28;20233;-51
2022/01/21 01:20:14;;;;;;;8.85;2.25;;;;;;;1.39;71.77;100031.50;4124693;28;20870;-50
2022/01/21 01:22:18;;;;;;;3.08;2.42;;;;;;;1.38;71.98;100037.91;4110369;28;20290;-50
2022/01/21 01:29:00;;;;;;;8.63;3.28;;;;;;;1.29;71.52;100041.50;4126843;28;20692;-50
2022/01/21 01:31:02;;;;;;;5.78;2.97;;;;;;;1.39;71.58;100039.59;4109359;28;20226;-50
2022/01/21 01:33:08;;;;;;;3.90;2.03;;;;;;;1.26;71.78;100044.53;4126950;28;20540;-50
2022/01/21 01:35:12;;;;;;;6.82;2.67;;;;;;;1.25;72.23;100050.94;4125523;28;20260;-50
2022/01/21 01:37:27;;;;;;;10.82;2.05;;;;;;;1.18;71.76;100059.78;4124743;28;20241;-50
2022/01/21 01:39:45;;;;;;;6.40;2.92;;;;;;;1.11;72.68;100064.94;4110508;28;20268;-51
2022/01/21 01:41:59;;;;;;;7.32;3.50;;;;;;;1.09;72.21;100071.47;4100775;28;20238;-51
2022/01/21 01:51:03;;;;;;;4.90;3.28;;;;;;;0.99;72.71;100082.31;4126713;28;20277;-51
2022/01/21 01:53:05;;;;;;;7.05;2.88;;;;;;;0.94;73.01;100076.53;4110228;28;20261;-51
2022/01/21 01:55:08;;;;;;;4.55;2.45;;;;;;;0.89;73.31;100070.75;4127562;28;20786;-52
2022/01/21 01:57:10;;;;;;;4.35;2.55;;;;;;;0.89;73.12;100069.91;4110178;28;20206;-51
2022/01/21 01:59:12;;;;;;;6.78;2.97;;;;;;;0.84;73.09;100062.28;4108271;28;20211;-51
2022/01/21 02:01:14;;;;;;;7.28;3.40;;;;;;;0.81;72.99;100057.19;4111070;28;20234;-51
2022/01/21 02:03:17;;;;;;;3.72;2.58;;;;;;;0.78;73.55;100068.28;4110635;28;20229;-50
2022/01/21 02:05:18;;;;;;;5.72;2.92;;;;;;;0.84;73.45;100050.66;4110968;28;20597;-50
2022/01/21 02:07:20;;;;;;;9.57;3.50;;;;;;;0.83;73.33;100059.72;4096457;28;20343;-51
2022/01/21 02:09:25;;;;;;;9.82;3.45;;;;;;;0.81;73.34;100041.03;4111868;28;20210;-51
2022/01/21 02:11:27;;;;;;;4.82;2.92;;;;;;;0.82;73.25;100045.41;4113637;28;20219;-50
2022/01/21 02:13:33;;;;;;;5.32;2.78;;;;;;;0.78;73.60;100052.13;4125805;28;20795;-50
2022/01/21 02:15:37;;;;;;;7.13;2.40;;;;;;;0.79;73.95;100064.56;4131386;28;20576;-50
2022/01/21 02:22:01;;;;;;;7.97;2.33;;;;;;;0.80;73.81;100050.09;4128805;28;20237;-51
2022/01/21 02:24:15;;;;;;;5.13;3.30;;;;;;;0.75;73.91;100052.41;4098490;28;20689;-52
2022/01/21 02:26:17;;;;;;;3.17;2.40;;;;;;;0.71;73.90;100061.78;4127651;28;20723;-51
2022/01/21 02:28:19;;;;;;;2.55;2.33;;;;;;;0.68;74.03;100056.69;4132045;28;20248;-52
2022/01/21 02:30:22;;;;;;;10.82;3.17;;;;;;;0.68;74.26;100061.25;4125172;28;20210;-51
2022/01/21 02:32:24;;;;;;;4.63;2.50;;;;;;;0.70;73.88;100062.81;4130181;28;20233;-51
2022/01/21 02:34:27;;;;;;;5.13;3.20;;;;;;;0.75;73.92;100063.16;4113440;28;20211;-51
2022/01/21 02:36:29;;;;;;;3.58;2.80;;;;;;;0.65;73.94;100066.91;4128258;28;20244;-50
2022/01/21 02:38:30;;;;;;;3.17;2.38;;;;;;;0.57;74.10;100075.75;4127137;28;20264;-50
2022/01/21 02:40:32;;;;;;;10.40;3.20;;;;;;;0.55;73.98;100077.72;4113562;28;20564;-51
2022/01/21 02:42:34;;;;;;;4.07;2.42;;;;;;;0.48;74.06;100076.63;4128664;28;20304;-51
2022/01/21 02:44:38;;;;;;;5.57;2.22;;;;;;;0.41;74.25;100075.53;4110732;28;20707;-51
2022/01/21 02:46:42;;;;;;;14.75;3.72;;;;;;;0.41;74.11;100078.22;4127404;28;20335;-51
2022/01/21 02:48:44;;;;;;;4.57;2.75;;;;;;;0.35;74.52;100083.38;4126797;28;20221;-50
2022/01/21 02:50:48;;;;;;;5.60;3.53;;;;;;;0.36;74.85;100072.44;4128581;28;20210;-51
2022/01/21 02:52:56;;;;;;;5.00;2.70;;;;;;;0.31;74.67;100074.75;4111675;28;20671;-50
2022/01/21 02:54:58;;;;;;;2.87;2.50;;;;;;;0.32;74.70;100083.63;4110021;28;20214;-51
2022/01/21 02:57:02;;;;;;;5.43;2.43;;;;;;;0.34;74.77;100085.19;4125508;28;20222;-50
2022/01/21 02:59:06;;;;;;;11.13;3.20;;;;;;;0.32;74.51;100087.19;4111836;28;20700;-51
2022/01/21 03:01:08;;;;;;;4.43;2.53;;;;;;;0.29;74.56;100081.25;4126859;28;20686;-51
2022/01/21 03:03:10;;;;;;;5.43;2.75;;;;;;;0.39;74.22;100082.06;4111370;28;20700;-50
2022/01/21 03:05:15;;;;;;;9.43;2.97;;;;;;;0.34;74.43;100073.59;4111616;28;20723;-50
2022/01/21 03:07:16;;;;;;;5.27;2.67;;;;;;;0.29;74.54;100082.09;4096631;28;20211;-51
2022/01/21 03:09:18;;;;;;;5.18;1.92;;;;;;;0.24;74.49;100068.25;4112729;28;20266;-50
2022/01/21 03:11:22;;;;;;;8.23;2.85;;;;;;;0.36;74.60;100061.66;4095239;28;20255;-52
2022/01/21 03:13:23;;;;;;;11.00;2.55;;;;;;;0.29;74.39;100070.50;4125907;28;20209;-50
2022/01/21 03:15:25;;;;;;;3.93;2.63;;;;;;;0.23;74.65;100063.88;4115600;28;20246;-51
2022/01/21 03:17:27;;;;;;;4.83;2.77;;;;;;;0.17;74.64;100072.53;4112242;28;20234;-50
2022/01/21 03:19:29;;;;;;;5.53;3.13;;;;;;;0.15;74.64;100063.72;4125186;28;20755;-51
2022/01/21 03:21:31;;;;;;;7.50;3.00;;;;;;;0.10;74.83;100060.66;4110144;28;20262;-51
2022/01/21 03:23:34;;;;;;;5.07;3.03;;;;;;;0.05;74.62;100062.94;4107905;28;20211;-51
2022/01/21 03:25:36;;;;;;;4.40;2.50;;;;;;;0.01;74.94;100061.50;4111823;28;20648;-51
2022/01/21 03:27:38;;;;;;;3.83;2.73;;;;;;;0.10;74.45;100060.66;4113476;28;20210;-51
2022/01/21 03:29:39;;;;;;;5.43;3.63;;;;;;;-0.02;74.85;100077.94;4111054;28;20205;-50
2022/01/21 03:31:41;;;;;;;5.10;3.10;;;;;;;-0.11;74.85;100077.97;4112802;28;20234;-52
2022/01/21 03:33:43;;;;;;;11.03;3.10;;;;;;;-0.12;74.77;100082.50;4128157;28;20237;-51
2022/01/21 03:35:45;;;;;;;5.70;2.43;;;;;;;-0.15;74.74;100076.56;4112352;28;20226;-51
2022/01/21 03:37:46;;;;;;;5.70;2.57;;;;;;;-0.19;74.93;100082.38;4111513;28;20234;-51
2022/01/21 03:39:48;;;;;;;9.90;3.20;;;;;;;-0.22;75.11;100090.75;4110375;28;20271;-50
2022/01/21 03:41:50;;;;;;;5.20;2.80;;;;;;;-0.11;74.64;100092.25;4128721;28;20229;-52
2022/01/21 03:43:51;;;;;;;2.67;2.47;;;;;;;-0.16;74.91;100090.16;4110965;28;20263;-52
2022/01/21 03:45:53;;;;;;;4.33;3.13;;;;;;;-0.15;74.91;100090.00;4111251;28;20679;-51
2022/01/21 03:47:55;;;;;;;6.17;3.73;;;;;;;-0.30;75.12;100091.44;4127385;28;20293;-51
2022/01/21 03:50:18;;;;;;;8.83;3.90;;;;;;;-0.19;75.18;100095.81;4111118;28;20768;-51
2022/01/21 03:52:22;;;;;;;14.40;3.10;;;;;;;-0.40;75.39;100109.41;4126628;28;20218;-51
2022/01/21 03:54:24;;;;;;;6.37;2.50;;;;;;;-0.41;75.53;100102.34;4124426;28;20657;-51
2022/01/21 03:56:25;;;;;;;11.50;4.03;;;;;;;-0.47;75.64;100112.81;4112635;28;20230;-50
2022/01/21 03:58:27;;;;;;;14.60;3.47;;;;;;;-0.58;76.25;100104.88;4126707;28;20201;-52
2022/01/21 04:00:31;;;;;;;5.70;3.83;;;;;;;-0.59;76.53;100106.75;4126757;28;20217;-52
2022/01/21 04:02:33;;;;;;;7.00;4.27;;;;;;;-0.56;76.68;100105.63;4110207;28;20516;-53
2022/01/21 04:04:35;;;;;;;7.70;3.30;;;;;;;-0.55;77.06;100118.91;4125653;28;20301;-52
2022/01/21 04:06:37;;;;;;;8.63;4.00;;;;;;;-0.46;76.05;100114.53;4108213;28;20628;-51
2022/01/21 04:08:39;;;;;;;5.37;3.07;;;;;;;-0.44;76.50;100120.59;4111652;28;20277;-51
2022/01/21 04:10:42;;;;;;;7.27;3.67;;;;;;;-0.46;76.41;100125.28;4127748;28;20735;-51
2022/01/21 04:12:44;;;;;;;5.63;3.93;;;;;;;-0.27;75.75;100119.91;4127283;28;20724;-51
2022/01/21 04:14:46;;;;;;;5.93;5.10;;;;;;;-0.50;75.99;100126.53;4127781;28;20206;-51
2022/01/21 04:16:47;;;;;;;6.57;3.10;;;;;;;-0.46;75.87;100119.91;4096025;28;20224;-52
2022/01/21 04:18:49;;;;;;;3.97;3.60;;;;;;;-0.42;76.09;100116.78;4129185;28;20233;-51
2022/01/21 04:20:52;;;;;;;10.80;4.43;;;;;;;-0.47;76.26;100112.81;4111874;28;20559;-52
2022/01/21 04:22:54;;;;;;;4.93;4.07;;;;;;;-0.31;75.92;100110.41;4125895;28;20817;-51
2022/01/21 04:24:56;;;;;;;6.17;3.70;;;;;;;-0.26;75.44;100110.84;4094588;28;20216;-52
2022/01/21 04:26:58;;;;;;;5.73;3.70;;;;;;;-0.23;75.52;100115.91;4112068;28;20333;-52
2022/01/21 04:28:59;;;;;;;7.40;3.50;;;;;;;-0.38;75.25;100107.44;4125794;28;20755;-50
2022/01/21 04:31:01;;;;;;;9.43;3.87;;;;;;;-0.44;75.45;100112.53;4125327;28;20253;-50
2022/01/21 04:33:04;;;;;;;4.80;2.80;;;;;;;-0.51;75.79;100103.34;4110701;28;20249;-50
2022/01/21 04:35:06;;;;;;;13.27;3.73;;;;;;;-0.61;76.34;100113.25;4112883;28;20241;-51
2022/01/21 04:37:11;;;;;;;9.60;4.07;;;;;;;-0.56;76.22;100102.94;4112642;28;20740;-51
2022/01/21 04:39:23;;;;;;;6.87;4.57;;;;;;;-0.55;76.12;100110.84;4109881;28;20325;-51
2022/01/21 04:48:08;;;;;;;9.83;3.57;;;;;;;-0.53;76.71;100124.13;4127934;28;20234;-51
2022/01/21 04:50:13;;;;;;;3.93;3.30;;;;;;;-0.49;76.65;100120.19;4092987;28;20212;-52
2022/01/21 04:52:15;;;;;;;6.07;3.53;;;;;;;-0.40;76.40;100128.22;4110710;28;20313;-51
2022/01/21 04:54:17;;;;;;;8.10;3.67;;;;;;;-0.41;76.39;100129.22;4109983;28;20210;-52
2022/01/21 04:56:19;;;;;;;7.13;3.80;;;;;;;-0.41;76.23;100133.78;4111711;28;20904;-51
2022/01/21 04:58:21;;;;;;;6.57;4.07;;;;;;;-0.38;76.34;100133.47;4110146;28;20226;-51
2022/01/21 05:00:23;;;;;;;5.70;4.07;;;;;;;-0.40;75.94;100132.78;4110494;28;20296;-51
2022/01/21 05:02:26;;;;;;;5.20;3.90;;;;;;;-0.33;76.05;100131.22;4123899;28;21090;-52
2022/01/21 05:04:28;;;;;;;6.70;3.60;;;;;;;-0.36;76.01;100128.81;4123965;28;20587;-52
2022/01/21 05:06:30;;;;;;;4.00;3.60;;;;;;;-0.30;76.13;100130.91;4110710;28;20443;-52
2022/01/21 05:08:44;;;;;;;8.73;2.60;;;;;;;-0.31;76.29;100131.91;4110945;28;20298;-51
2022/01/21 05:10:46;;;;;;;16.03;5.13;;;;;;;-0.31;75.80;100129.22;4111706;28;20240;-50
2022/01/21 05:12:48;;;;;;;7.10;4.23;;;;;;;-0.30;76.14;100137.16;4109213;28;20226;-51
2022/01/21 05:15:10;;;;;;;6.37;3.67;;;;;;;-0.28;76.13;100137.84;4111679;28;20208;-50
2022/01/21 05:17:13;;;;;;;4.77;4.07;;;;;;;-0.12;75.98;100128.22;4110055;28;20234;-50
2022/01/21 05:19:17;;;;;;;5.63;3.67;;;;;;;-0.13;75.44;100132.91;4112754;28;20269;-51
2022/01/21 05:21:19;;;;;;;12.13;4.77;;;;;;;-0.16;75.67;100138.59;4110544;28;20222;-52
2022/01/21 05:23:21;;;;;;;18.43;4.53;;;;;;;-0.20;75.76;100121.03;4110805;28;20631;-52
2022/01/21 05:25:22;;;;;;;5.60;4.23;;;;;;;-0.17;75.87;100144.94;4126049;28;20691;-52
2022/01/21 05:27:25;;;;;;;7.27;4.00;;;;;;;-0.17;75.82;100139.53;4123602;28;20213;-51
2022/01/21 05:29:32;;;;;;;6.23;4.23;;;;;;;-0.19;75.68;100137.03;4124575;28;20198;-50
2022/01/21 05:31:34;;;;;;;7.83;4.63;;;;;;;-0.16;75.85;100138.59;4094258;28;20234;-51
2022/01/21 05:33:36;;;;;;;6.80;4.20;;;;;;;-0.15;75.89;100137.59;4110130;28;20207;-52
2022/01/21 05:35:38;;;;;;;8.63;3.93;;;;;;;-0.14;76.18;100152.72;4124032;28;20241;-50
2022/01/21 05:37:40;;;;;;;4.30;4.00;;;;;;;-0.14;75.81;100158.94;4124103;28;20953;-52
2022/01/21 05:39:41;;;;;;;9.10;4.27;;;;;;;-0.11;76.05;100154.13;4125940;28;20217;-50
2022/01/21 05:41:46;;;;;;;5.87;3.67;;;;;;;-0.12;76.06;100146.22;4109115;28;20238;-50
2022/01/21 05:43:48;;;;;;;7.83;3.17;;;;;;;-0.02;75.82;100155.97;4107602;28;20680;-50
2022/01/21 05:48:31;;;;;;;9.13;3.10;;;;;;;-0.05;75.72;100150.84;4090082;28;20238;-50
2022/01/21 05:50:33;;;;;;;4.23;2.87;;;;;;;-0.05;75.69;100147.34;4071082;29;20239;-51
2022/01/21 05:52:42;;;;;;;5.73;2.53;;;;;;;-0.06;75.79;100157.25;4077798;29;20263;-51
2022/01/21 05:54:45;;;;;;;6.33;3.50;;;;;;;-0.07;75.61;100160.94;4108590;28;20814;-50
2022/01/21 05:56:47;;;;;;;6.55;3.05;;;;;;;-0.06;75.90;100168.00;4111577;28;20231;-51
2022/01/21 05:58:52;;;;;;;4.93;2.57;;;;;;;0.16;75.57;100156.09;4110356;28;20210;-50
2022/01/21 06:00:53;;;;;;;4.17;2.70;;;;;;;0.02;75.50;100154.66;4108687;28;20241;-52
2022/01/21 06:02:55;;;;;;;6.57;4.43;;;;;;;0.00;75.55;100155.84;4108866;28;20222;-50
2022/01/21 06:04:57;;;;;;;12.87;3.37;;;;;;;-0.03;75.59;100151.59;4110792;28;20337;-50
2022/01/21 06:07:00;;;;;;;9.17;3.70;;;;;;;-0.03;75.73;100162.34;4122498;28;20674;-50
2022/01/21 06:09:04;;;;;;;5.13;3.03;;;;;;;-0.04;75.74;100170.56;4122635;28;20764;-51
2022/01/21 06:11:06;;;;;;;5.40;4.10;;;;;;;-0.03;75.98;100178.50;4123661;28;21117;-50
2022/01/21 06:13:07;;;;;;;4.82;3.42;;;;;;;-0.05;76.10;100164.31;4107271;28;20209;-51
2022/01/21 06:15:09;;;;;;;8.67;4.40;;;;;;;0.05;75.73;100164.31;4125142;28;20245;-51
2022/01/21 06:17:12;;;;;;;6.33;4.37;;;;;;;0.08;75.67;100164.88;4109622;28;20230;-51
2022/01/21 06:19:14;;;;;;;9.40;4.47;;;;;;;0.02;75.85;100160.06;4093463;28;20253;-51
2022/01/21 06:21:15;;;;;;;9.20;4.73;;;;;;;0.02;75.85;100173.50;4109703;28;20265;-51
2022/01/21 06:23:18;;;;;;;13.47;3.80;;;;;;;0.01;76.00;100169.13;4094490;28;20218;-51
2022/01/21 06:25:19;;;;;;;6.53;3.73;;;;;;;0.18;75.59;100173.78;4110133;28;20258;-51
2022/01/21 06:27:26;;;;;;;9.37;3.80;;;;;;;0.22;75.58;100177.03;4125655;28;20210;-50
2022/01/21 06:29:28;;;;;;;6.67;3.87;;;;;;;0.07;75.74;100168.56;4107352;28;21286;-51
2022/01/21 06:31:30;;;;;;;8.20;5.32;;;;;;;0.00;76.03;100175.50;4122047;28;20262;-52
2022/01/21 06:33:32;;;;;;;9.43;4.27;;;;;;;0.01;75.86;100179.88;4109601;28;20298;-51
2022/01/21 06:35:34;;;;;;;4.33;3.40;;;;;;;0.03;76.19;100177.91;4122111;28;20202;-51
2022/01/21 06:37:38;;;;;;;7.03;3.77;;;;;;;0.12;75.86;100171.66;4106017;28;20222;-51
2022/01/21 06:39:40;;;;;;;10.83;3.97;;;;;;;0.10;75.90;100167.41;4124096;28;20671;-51
2022/01/21 06:41:44;;;;;;;11.37;3.70;;;;;;;0.10;75.81;100168.28;4108121;28;20227;-51
2022/01/21 06:43:46;;;;;;;7.00;3.27;;;;;;;0.09;75.80;100177.31;4122272;28;20272;-52
2022/01/21 06:45:48;;;;;;;5.23;3.33;;;;;;;0.09;75.84;100182.69;4125466;28;20264;-51
2022/01/21 06:47:49;;;;;;;8.30;4.53;;;;;;;0.18;75.71;100181.84;4110094;28;20727;-51
2022/01/21 06:49:51;;;;;;;7.07;3.40;;;;;;;0.21;75.50;100192.31;4109373;28;20210;-50
2022/01/21 06:51:53;;;;;;;7.67;5.03;;;;;;;0.22;75.74;100194.03;4093703;28;20568;-50
2022/01/21 06:53:55;;;;;;;5.57;4.97;;;;;;;0.17;75.75;100198.16;4126905;28;20618;-51
2022/01/21 06:55:57;;;;;;;6.07;5.20;;;;;;;0.13;75.90;100200.28;4112494;28;20302;-50
2022/01/21 06:57:58;;;;;;;5.93;4.70;;;;;;;0.20;75.71;100204.09;4124533;28;20332;-50
2022/01/21 07:00:00;;;;;;;9.63;4.37;;;;;;;0.12;75.83;100205.78;4125626;28;20775;-50
2022/01/21 07:02:02;;;;;;;5.40;3.80;;;;;;;0.10;75.83;100205.97;4111581;28;20812;-49
2022/01/21 07:04:04;;;;;;;6.23;4.00;;;;;;;0.11;76.01;100210.34;4124387;28;20214;-52
2022/01/21 07:06:05;;;;;;;5.13;3.93;;;;;;;0.10;76.21;100208.66;4094971;28;20262;-51
2022/01/21 07:08:07;;;;;;;12.30;4.47;;;;;;;0.11;75.89;100206.78;4110503;28;20222;-51
2022/01/21 07:10:11;;;;;;;11.27;7.63;;;;;;;0.14;76.08;100222.66;4092680;28;20803;-51
2022/01/21 07:12:13;;;;;;;17.03;10.20;;;;;;;0.12;76.03;100225.50;4112428;28;20930;-51
2022/01/21 07:14:15;;;;;;;27.90;12.50;;;;;;;0.20;75.97;100222.94;4113170;28;20253;-50
2022/01/21 07:16:17;;;;;;;31.57;12.27;;;;;;;0.20;76.09;100232.88;4110504;28;20313;-50
2022/01/21 07:18:18;;;;;;;19.93;11.47;;;;;;;0.11;76.11;100229.19;4112321;28;20199;-51
2022/01/21 07:20:20;;;;;;;17.80;9.33;;;;;;;0.17;75.91;100238.50;4111458;28;20203;-51
2022/01/21 07:22:22;;;;;;;12.03;9.13;;;;;;;0.18;75.66;100241.06;4111350;28;20254;-51
2022/01/21 07:24:24;;;;;;;12.03;8.30;;;;;;;0.06;76.11;100241.34;4123174;28;20203;-50
2022/01/21 07:26:26;;;;;;;10.13;8.67;;;;;;;0.03;76.00;100231.72;4108623;28;20207;-50
2022/01/21 07:28:28;;;;;;;7.03;6.17;;;;;;;0.01;76.35;100231.00;4108896;28;20211;-50
2022/01/21 07:30:29;;;;;;;10.00;4.57;;;;;;;0.03;76.36;100226.34;4127624;28;20202;-52
2022/01/21 07:32:31;;;;;;;4.73;4.13;;;;;;;-0.02;76.33;100228.63;4125261;28;20301;-51
2022/01/21 07:34:33;;;;;;;11.67;5.93;;;;;;;0.01;76.04;100228.31;4112361;28;20211;-50
2022/01/21 07:36:38;;;;;;;17.50;6.73;;;;;;;0.00;76.50;100225.78;4110309;28;20219;-53
2022/01/21 07:38:41;;;;;;;6.93;4.97;;;;;;;0.07;76.56;100227.75;4124958;28;20213;-49
2022/01/21 07:40:43;;;;;;;8.50;4.60;;;;;;;0.15;75.96;100227.06;4112114;28;20224;-53
2022/01/21 07:42:45;;;;;;;7.90;4.43;;;;;;;0.09;76.02;100220.38;4111977;28;20222;-52
2022/01/21 07:44:47;;;;;;;8.63;5.00;;;;;;;0.05;75.84;100223.50;4098405;28;20218;-52
2022/01/21 07:46:49;;;;;;;9.70;4.83;;;;;;;0.17;75.81;100228.59;4126471;28;20285;-51
2022/01/21 07:48:51;;;;;;;4.47;4.07;;;;;;;0.13;75.77;100229.00;4113247;28;20962;-52
2022/01/21 07:50:53;;;;;;;9.60;4.10;;;;;;;0.25;75.58;100228.75;4111630;28;20270;-50
2022/01/21 07:52:54;;;;;;;7.00;4.13;;;;;;;0.23;75.75;100233.44;4127154;28;20213;-49
2022/01/21 07:54:56;;;;;;;10.80;4.40;;;;;;;0.34;75.48;100235.94;4124031;28;20320;-51
2022/01/21 07:56:59;;;;;;;7.40;3.97;;;;;;;0.28;75.50;100241.06;4106360;28;20499;-51
2022/01/21 07:59:05;;;;;;;5.97;3.90;;;;;;;0.29;75.11;100238.22;4111230;28;20210;-51
2022/01/21 08:01:07;;;;;;;5.60;3.60;;;;;;;0.24;75.43;100243.19;4124883;28;20233;-53
2022/01/21 08:03:09;;;;;;;6.57;3.23;;;;;;;0.33;75.41;100250.41;4110686;28;20265;-51
2022/01/21 08:05:11;;;;;;;7.63;3.23;;;;;;;0.37;75.08;100246.44;4112895;28;20219;-52
2022/01/21 08:07:13;;;;;;;8.63;4.07;;;;;;;0.40;75.42;100240.75;4113115;28;20215;-49
2022/01/21 08:09:16;;;;;;;8.87;4.30;;;;;;;0.39;75.29;100236.38;4128919;28;20210;-51
2022/01/21 08:11:18;;;;;;;10.57;3.47;;;;;;;0.47;74.97;100236.50;4125958;28;20230;-50
2022/01/21 08:13:20;;;;;;;8.17;2.90;;;;;;;0.43;75.11;100237.78;4112469;28;20889;-51
2022/01/21 08:15:22;;;;;;;7.43;3.83;;;;;;;0.43;75.21;100247.69;4128756;28;20202;-49
2022/01/21 08:17:24;;;;;;;9.07;4.67;;;;;;;0.54;74.62;100252.94;4111207;28;20227;-50
2022/01/21 08:19:25;;;;;;;4.50;3.72;;;;;;;0.44;75.14;100258.34;4121808;28;20276;-49
2022/01/21 08:21:27;;;;;;;4.47;3.10;;;;;;;0.60;74.46;100246.97;4108715;28;20226;-50
2022/01/21 08:23:29;;;;;;;8.27;3.97;;;;;;;0.61;74.62;100246.81;4107381;28;20752;-50
2022/01/21 08:25:30;;;;;;;11.15;4.07;;;;;;;0.63;74.60;100242.16;4108006;28;20210;-53
2022/01/21 08:27:32;;;;;;;6.90;4.00;;;;;;;0.58;74.47;100239.03;4111510;28;20206;-52
2022/01/21 08:29:34;;;;;;;9.57;4.03;;;;;;;0.53;74.74;100241.31;4128477;28;20572;-52
2022/01/21 08:31:36;;;;;;;5.88;3.40;;;;;;;0.58;74.70;100239.03;4094913;28;20384;-52
2022/01/21 08:33:37;;;;;;;8.75;3.70;;;;;;;0.53;74.89;100235.91;4127960;28;20631;-51
2022/01/21 08:35:39;;;;;;;17.07;4.20;;;;;;;0.54;75.12;100237.59;4110977;28;20626;-51
2022/01/21 08:37:41;;;;;;;7.78;5.88;;;;;;;0.64;74.72;100243.84;4127450;28;20230;-52
2022/01/21 08:39:43;;;;;;;7.80;3.72;;;;;;;0.67;74.71;100248.09;4109400;28;20262;-50
2022/01/21 08:41:45;;;;;;;7.67;4.23;;;;;;;0.71;74.46;100250.34;4119505;28;20326;-50
2022/01/21 08:43:47;;;;;;;11.50;3.35;;;;;;;0.70;74.35;100254.03;4119513;28;20225;-50
2022/01/21 08:45:49;;;;;;;8.43;3.70;;;;;;;0.71;74.38;100253.03;4103467;28;20207;-50
2022/01/21 08:47:51;;;;;;;8.37;3.30;;;;;;;0.76;74.33;100256.16;4120810;28;20214;-53
2022/01/21 08:49:55;;;;;;;10.30;6.50;;;;;;;0.76;74.76;100258.84;4110307;28;20341;-52
2022/01/21 08:51:58;;;;;;;4.50;3.43;;;;;;;0.82;74.66;100269.00;4109166;28;20682;-50
2022/01/21 08:54:00;;;;;;;4.00;3.60;;;;;;;0.80;74.46;100265.63;4108351;28;20214;-53
2022/01/21 08:56:11;;;;;;;5.50;3.53;;;;;;;0.89;74.49;100255.81;4106195;28;20269;-50
2022/01/21 08:58:13;;;;;;;12.85;3.85;;;;;;;0.86;74.12;100256.97;4089354;28;20252;-51
2022/01/21 09:00:20;;;;;;;8.13;3.17;;;;;;;0.95;74.09;100252.53;4105156;28;20341;-51
2022/01/21 09:02:22;;;;;;;5.90;2.83;;;;;;;0.99;74.48;100262.00;4110114;28;20771;-53
2022/01/21 09:04:23;;;;;;;7.85;4.90;;;;;;;1.09;73.98;100266.38;4108521;28;20278;-50
2022/01/21 09:06:28;;;;;;;10.93;6.27;;;;;;;1.06;73.81;100261.28;4103672;28;20236;-53
2022/01/21 09:08:30;;;;;;;21.88;6.35;;;;;;;1.08;74.15;100256.59;4124728;28;20230;-53
2022/01/21 09:10:32;;;;;;;10.13;7.22;;;;;;;1.21;74.12;100259.81;4109758;28;20207;-52
2022/01/21 09:12:34;;;;;;;8.77;6.13;;;;;;;1.23;74.31;100263.22;4126777;28;20229;-53
2022/01/21 09:14:36;;;;;;;13.65;7.30;;;;;;;1.27;73.98;100261.91;4126795;28;20776;-54
2022/01/21 09:16:39;;;;;;;8.43;7.00;;;;;;;1.27;73.64;100253.81;4112550;28;20249;-54
2022/01/21 09:21:07;;;;;;;4.30;3.92;;;;;;;1.38;73.46;100267.13;4124938;28;20234;-52
2022/01/21 09:23:09;;;;;;;18.13;2.65;;;;;;;1.31;73.90;100276.81;4109261;28;20688;-52
2022/01/21 09:25:11;;;;;;;3.70;2.72;;;;;;;1.39;73.81;100265.25;4109794;28;20206;-51
2022/01/21 09:27:12;;;;;;;12.93;3.67;;;;;;;1.41;74.03;100282.97;4111427;28;20257;-51
2022/01/21 09:29:15;;;;;;;11.73;3.45;;;;;;;1.47;73.90;100281.56;4107251;28;20211;-51
2022/01/21 09:31:18;;;;;;;17.52;4.15;;;;;;;1.49;73.80;100284.94;4127383;28;20258;-51
2022/01/21 09:33:21;;;;;;;5.95;4.20;;;;;;;1.50;73.96;100282.09;4124598;28;20217;-51
2022/01/21 09:35:23;;;;;;;2.50;2.05;;;;;;;1.71;73.25;100279.13;4110274;28;20206;-51
2022/01/21 09:37:25;;;;;;;2.53;1.90;;;;;;;1.61;73.38;100289.16;4125644;28;20230;-51
2022/01/21 09:39:27;;;;;;;3.28;2.35;;;;;;;1.63;73.05;100276.34;4104969;28;20211;-51
2022/01/21 09:41:30;;;;;;;3.13;2.65;;;;;;;1.61;73.12;100279.19;4121618;28;20711;-51
2022/01/21 09:43:37;;;;;;;13.20;3.33;;;;;;;1.82;72.14;100277.06;4106851;28;21013;-50
2022/01/21 09:45:40;;;;;;;9.02;3.28;;;;;;;1.82;71.90;100277.06;4111509;28;20636;-51
2022/01/21 09:47:50;;;;;;;6.70;2.28;;;;;;;1.84;72.31;100280.50;4105812;28;20713;-51
2022/01/21 09:49:54;;;;;;;3.72;2.75;;;;;;;1.89;72.72;100271.94;4108045;28;20219;-51
2022/01/21 09:51:59;;;;;;;3.05;2.38;;;;;;;1.95;71.79;100287.53;4126421;28;20225;-50
2022/01/21 09:54:05;;;;;;;2.25;1.70;;;;;;;1.96;72.45;100279.28;4107698;28;20234;-50
2022/01/21 09:56:14;;;;;;;3.17;2.97;;;;;;;2.06;72.17;100280.03;4123488;28;20234;-51
2022/01/21 09:58:16;;;;;;;5.28;1.83;;;;;;;2.06;72.30;100282.75;4108209;28;20289;-52
2022/01/21 10:00:20;;;;;;;8.27;2.13;;;;;;;2.10;72.10;100280.59;4126960;28;20206;-51
2022/01/21 10:02:27;;;;;;;10.13;2.35;;;;;;;2.20;71.49;100268.72;4110787;28;20219;-52
2022/01/21 10:04:32;;;;;;;2.50;2.28;;;;;;;2.19;72.06;100279.66;4127136;28;20837;-53
2022/01/21 10:06:35;;;;;;;4.15;3.25;;;;;;;2.21;72.49;100275.78;4126746;28;20270;-54
2022/01/21 10:08:39;;;;;;;6.32;2.10;;;;;;;2.25;72.58;100284.44;4094238;28;20626;-53
2022/01/21 10:10:42;;;;;;;11.90;2.38;;;;;;;2.28;71.92;100284.97;4111542;28;20254;-52
2022/01/21 10:12:46;;;;;;;11.60;2.42;;;;;;;2.32;71.14;100285.50;4110250;28;20221;-51
2022/01/21 10:14:48;;;;;;;4.47;3.47;;;;;;;2.32;71.77;100283.69;4105953;28;20214;-51
2022/01/21 10:17:08;;;;;;;35.78;2.45;;;;;;;2.36;71.64;100276.13;4106899;28;20324;-52
2022/01/21 10:19:12;;;;;;;5.88;2.53;;;;;;;2.28;71.54;100279.56;4117428;28;20257;-51
2022/01/21 10:21:14;;;;;;;1.70;1.58;;;;;;;2.45;71.23;100286.84;4103845;28;20306;-52
2022/01/21 10:23:19;;;;;;;13.88;3.53;;;;;;;2.44;71.61;100282.44;4119567;28;20201;-51